Air Resources Laboratory banner image
Air Resources Laboratory web site National Oceanic and Atmospheric Administration (NOAA)

pa metar


KABE 121751Z 01005KT 10SM OVC042 05/M05 A3014 RMK AO2 SLP209 T00501050 10050
 21006 58002=
KAFJ 121756Z AUTO 18007KT 10SM CLR 03/M05 A3007 RMK AO2 SLP194 T00331050 10033
 21061 56022=
KAGC 121753Z 17009KT 10SM CLR 02/M05 A3005 RMK AO2 SLP193 T00171050 10022 21022
 55018=
KAOO 121753Z AUTO 24007KT 9SM CLR 02/M04 A3009 RMK AO2 SLP202 T00221044 10022
 21006 58017=
KAVP 121754Z 00000KT 7SM OVC030 02/M04 A3010 RMK AO2 SLP202 T00171044 10017
 21017 58000=
KBFD 121753Z AUTO VRB03KT 8SM OVC012 M02/M05 A3002 RMK AO2 SLP189 T10221050
 11022 21033 58012=
KBTP 121756Z AUTO 14005KT 10SM CLR 01/M06 A3006 RMK AO2 SLP197 T00111056 10017
 21017 55020 FZRANO=
KBVI 121747Z 15005KT 10SM CLR 01/M04 A3004=
KCXY 121756Z 00000KT 10SM CLR 06/M07 A3015 RMK AO2 SLP214 T00561067 10067 21028
 58010=
KDUJ 121753Z AUTO VRB06KT 8SM SCT019 M01/M06 A3003 RMK AO2 SLP189 T10061061
 11006 21028 58016=
KDYL 121754Z AUTO 32009KT 10SM BKN041 05/M06 A3014 RMK AO2 SLP212 T00501061
 10061 21028 56004 $=
KERI 121751Z 13011KT 7SM CLR 02/M04 A3003 RMK AO2 PRESFR SLP175 T00171039 10017
 21006 58026=
KFIG 121754Z AUTO VRB03KT 10SM OVC023 01/M05 A3008 RMK AO2 SLP202 T00061050
 10006 21011 58014=
KFKL 121756Z AUTO 17008KT 9SM CLR 00/M04 A3004 RMK AO2 SLP189 T00001039 10000
 21022 56018 FZRANO=
KGKJ 121753Z AUTO VRB06KT 8SM CLR 00/M03 A3001 RMK AO2 SLP178 T00001033 10000
 21017 56018=
KIDI 121755Z AUTO 12006KT 10SM CLR 02/M05 A3008 RMK A01=
KIPT 121754Z 26007KT 10SM OVC038 03/M06 A3014 RMK AO2 SLP211 T00331056 10044
 21028 55001=
KJST 121754Z AUTO 15006KT 10SM CLR 01/M05 A3001 RMK AO2 SLP187 T00061050 10006
 21033 58020=
KLBE 121750Z 25010KT 10SM SKC 04/M04 A3007 =
KLNS 121753Z 30007KT 10SM CLR 06/M04 A3016 RMK AO2 SLP216 T00611044 10061 21006
 56007=
KMDT 121756Z 32003KT 10SM OVC250 06/M06 A3014 RMK AO2 SLP211 T00561061 10061
 21039 58012=
KMPO 121753Z AUTO 33010KT 10SM OVC022 M01/M06 A3005 RMK AO2 SLP202 T10111056
 11011 21028 50001=
KMUI 121756Z AUTO 27004KT 10SM FEW042 05/M06 A3014 RMK AO2 SLP213 T00501057
 10051 20008 57008 $=
KPHL 121754Z 33005KT 10SM FEW044 BKN270 06/M06 A3016 RMK AO2 SLP211 T00561061
 10056 21006 58012=
KPIT 121751Z 15008KT 10SM BKN120 OVC160 02/M06 A3005 RMK AO2 SLP193 T00171056
 10022 21039 56021=
KPNE 121754Z 30007KT 10SM SCT044 07/M05 A3017 RMK AO2 SLP216 T00671050 10078
 20000 58006=
KPTW 121754Z AUTO 27005KT 8SM CLR 04/M05 A3016 RMK AO2 SLP212 T00391050 10044
 21039 58008=
KRDG 121754Z 29008KT 10SM FEW040 06/M03 A3014 RMK AO2 SLP216 T00561033 10061
 21017 56007=
KSEG 121753Z AUTO 23005KT 10SM BKN040 04/M06 A3015 RMK AO2 SLP214 T00391056
 10050 21039 58005=
KTHV 121753Z AUTO 23004KT 10SM CLR 05/M06 A3015 RMK AO2 SLP214 T00501056 10050
 21050 58014=
KUNV 121753Z 18005KT 10SM OVC026 01/M05 A3011=